sensor_id;sensor_type;location;lat;lon;timestamp;P1;durP1;ratioP1;P2;durP2;ratioP2
20456;SDS011;10387;51.102;6.848;2023-04-01T00:00:57;4.10;;;1.10;;
20456;SDS011;10387;51.102;6.848;2023-04-01T00:03:24;1.93;;;0.87;;
20456;SDS011;10387;51.102;6.848;2023-04-01T00:05:53;3.60;;;0.90;;
20456;SDS011;10387;51.102;6.848;2023-04-01T00:08:19;2.17;;;0.90;;
20456;SDS011;10387;51.102;6.848;2023-04-01T00:10:46;4.60;;;1.03;;
20456;SDS011;10387;51.102;6.848;2023-04-01T00:13:12;1.87;;;0.80;;
20456;SDS011;10387;51.102;6.848;2023-04-01T00:15:39;1.27;;;0.63;;
20456;SDS011;10387;51.102;6.848;2023-04-01T00:18:05;3.13;;;0.87;;
20456;SDS011;10387;51.102;6.848;2023-04-01T00:20:31;1.40;;;0.90;;
20456;SDS011;10387;51.102;6.848;2023-04-01T00:22:57;1.87;;;0.67;;
20456;SDS011;10387;51.102;6.848;2023-04-01T00:25:23;1.23;;;0.80;;
20456;SDS011;10387;51.102;6.848;2023-04-01T00:27:49;1.63;;;0.60;;
20456;SDS011;10387;51.102;6.848;2023-04-01T00:30:15;1.13;;;0.97;;
20456;SDS011;10387;51.102;6.848;2023-04-01T00:32:41;1.37;;;0.87;;
20456;SDS011;10387;51.102;6.848;2023-04-01T00:35:08;2.53;;;1.00;;
20456;SDS011;10387;51.102;6.848;2023-04-01T00:37:36;1.27;;;0.73;;
20456;SDS011;10387;51.102;6.848;2023-04-01T00:40:03;1.37;;;0.70;;
20456;SDS011;10387;51.102;6.848;2023-04-01T00:42:30;2.53;;;0.80;;
20456;SDS011;10387;51.102;6.848;2023-04-01T00:44:56;1.80;;;0.87;;
20456;SDS011;10387;51.102;6.848;2023-04-01T00:47:23;1.13;;;0.93;;
20456;SDS011;10387;51.102;6.848;2023-04-01T00:49:50;2.23;;;0.80;;
20456;SDS011;10387;51.102;6.848;2023-04-01T00:52:21;1.90;;;0.70;;
20456;SDS011;10387;51.102;6.848;2023-04-01T00:54:49;2.43;;;0.80;;
20456;SDS011;10387;51.102;6.848;2023-04-01T00:57:20;1.47;;;1.07;;
20456;SDS011;10387;51.102;6.848;2023-04-01T00:59:48;2.10;;;0.90;;
20456;SDS011;10387;51.102;6.848;2023-04-01T01:02:15;3.07;;;1.00;;
20456;SDS011;10387;51.102;6.848;2023-04-01T01:04:42;2.30;;;0.90;;
20456;SDS011;10387;51.102;6.848;2023-04-01T01:14:58;1.03;;;0.83;;
20456;SDS011;10387;51.102;6.848;2023-04-01T01:17:43;2.30;;;0.70;;
20456;SDS011;10387;51.102;6.848;2023-04-01T01:22:51;2.20;;;1.00;;
20456;SDS011;10387;51.102;6.848;2023-04-01T01:25:32;2.40;;;0.90;;
20456;SDS011;10387;51.102;6.848;2023-04-01T01:33:30;2.30;;;0.70;;
20456;SDS011;10387;51.102;6.848;2023-04-01T01:36:01;1.40;;;0.70;;
20456;SDS011;10387;51.102;6.848;2023-04-01T01:38:31;1.23;;;0.67;;
20456;SDS011;10387;51.102;6.848;2023-04-01T01:43:31;1.57;;;0.77;;
20456;SDS011;10387;51.102;6.848;2023-04-01T01:45:59;2.10;;;0.83;;
20456;SDS011;10387;51.102;6.848;2023-04-01T01:48:27;2.30;;;0.70;;
20456;SDS011;10387;51.102;6.848;2023-04-01T01:50:54;2.50;;;1.00;;
20456;SDS011;10387;51.102;6.848;2023-04-01T01:53:20;1.50;;;0.77;;
20456;SDS011;10387;51.102;6.848;2023-04-01T01:55:47;2.27;;;1.00;;
20456;SDS011;10387;51.102;6.848;2023-04-01T01:58:17;2.57;;;0.93;;
20456;SDS011;10387;51.102;6.848;2023-04-01T02:00:46;1.60;;;0.83;;
20456;SDS011;10387;51.102;6.848;2023-04-01T02:03:14;1.07;;;0.90;;
20456;SDS011;10387;51.102;6.848;2023-04-01T02:05:40;1.40;;;0.83;;
20456;SDS011;10387;51.102;6.848;2023-04-01T02:10:39;2.90;;;0.77;;
20456;SDS011;10387;51.102;6.848;2023-04-01T02:13:09;1.67;;;0.83;;
20456;SDS011;10387;51.102;6.848;2023-04-01T02:15:40;2.57;;;0.60;;
20456;SDS011;10387;51.102;6.848;2023-04-01T02:18:07;0.50;;;0.50;;
20456;SDS011;10387;51.102;6.848;2023-04-01T02:20:33;1.63;;;0.70;;
20456;SDS011;10387;51.102;6.848;2023-04-01T02:23:00;1.50;;;0.73;;
20456;SDS011;10387;51.102;6.848;2023-04-01T02:25:28;1.10;;;0.60;;
20456;SDS011;10387;51.102;6.848;2023-04-01T02:27:55;1.20;;;0.70;;
20456;SDS011;10387;51.102;6.848;2023-04-01T02:30:22;1.63;;;0.90;;
20456;SDS011;10387;51.102;6.848;2023-04-01T02:32:49;1.63;;;1.00;;
20456;SDS011;10387;51.102;6.848;2023-04-01T02:35:16;0.73;;;0.70;;
20456;SDS011;10387;51.102;6.848;2023-04-01T02:37:42;2.40;;;0.93;;
20456;SDS011;10387;51.102;6.848;2023-04-01T02:40:13;1.97;;;0.90;;
20456;SDS011;10387;51.102;6.848;2023-04-01T02:42:40;1.57;;;0.60;;
20456;SDS011;10387;51.102;6.848;2023-04-01T02:45:06;0.73;;;0.70;;
20456;SDS011;10387;51.102;6.848;2023-04-01T02:47:33;1.67;;;0.67;;
20456;SDS011;10387;51.102;6.848;2023-04-01T02:50:00;1.93;;;0.83;;
20456;SDS011;10387;51.102;6.848;2023-04-01T02:52:27;1.80;;;0.73;;
20456;SDS011;10387;51.102;6.848;2023-04-01T02:54:54;7.10;;;0.80;;
20456;SDS011;10387;51.102;6.848;2023-04-01T02:57:21;1.73;;;0.90;;
20456;SDS011;10387;51.102;6.848;2023-04-01T02:59:48;1.00;;;0.50;;
20456;SDS011;10387;51.102;6.848;2023-04-01T03:02:14;1.90;;;0.70;;
20456;SDS011;10387;51.102;6.848;2023-04-01T03:04:40;0.40;;;0.40;;
20456;SDS011;10387;51.102;6.848;2023-04-01T03:07:07;0.93;;;0.70;;
20456;SDS011;10387;51.102;6.848;2023-04-01T03:09:35;1.20;;;0.60;;
20456;SDS011;10387;51.102;6.848;2023-04-01T03:12:01;1.23;;;0.60;;
20456;SDS011;10387;51.102;6.848;2023-04-01T03:14:29;1.00;;;0.50;;
20456;SDS011;10387;51.102;6.848;2023-04-01T03:16:55;0.77;;;0.50;;
20456;SDS011;10387;51.102;6.848;2023-04-01T03:19:22;0.93;;;0.70;;
20456;SDS011;10387;51.102;6.848;2023-04-01T03:21:48;0.93;;;0.50;;
20456;SDS011;10387;51.102;6.848;2023-04-01T03:24:15;1.00;;;0.73;;
20456;SDS011;10387;51.102;6.848;2023-04-01T03:26:41;1.83;;;0.83;;
20456;SDS011;10387;51.102;6.848;2023-04-01T03:29:07;0.70;;;0.70;;
20456;SDS011;10387;51.102;6.848;2023-04-01T03:31:33;1.20;;;0.70;;
20456;SDS011;10387;51.102;6.848;2023-04-01T03:34:00;2.13;;;0.67;;
20456;SDS011;10387;51.102;6.848;2023-04-01T03:36:26;0.90;;;0.50;;
20456;SDS011;10387;51.102;6.848;2023-04-01T03:38:54;1.33;;;0.77;;
20456;SDS011;10387;51.102;6.848;2023-04-01T03:41:30;1.23;;;0.50;;
20456;SDS011;10387;51.102;6.848;2023-04-01T03:43:56;1.20;;;0.63;;
20456;SDS011;10387;51.102;6.848;2023-04-01T03:46:22;2.73;;;0.40;;
20456;SDS011;10387;51.102;6.848;2023-04-01T03:48:49;1.10;;;0.40;;
20456;SDS011;10387;51.102;6.848;2023-04-01T03:51:15;0.70;;;0.50;;
20456;SDS011;10387;51.102;6.848;2023-04-01T03:53:41;0.70;;;0.70;;
20456;SDS011;10387;51.102;6.848;2023-04-01T03:56:13;1.17;;;0.53;;
20456;SDS011;10387;51.102;6.848;2023-04-01T03:58:40;1.07;;;0.50;;
20456;SDS011;10387;51.102;6.848;2023-04-01T04:01:21;1.23;;;0.60;;
20456;SDS011;10387;51.102;6.848;2023-04-01T04:03:50;1.87;;;0.40;;
20456;SDS011;10387;51.102;6.848;2023-04-01T04:06:18;0.63;;;0.43;;
20456;SDS011;10387;51.102;6.848;2023-04-01T04:08:45;0.93;;;0.57;;
20456;SDS011;10387;51.102;6.848;2023-04-01T04:11:11;0.90;;;0.77;;
20456;SDS011;10387;51.102;6.848;2023-04-01T04:13:40;1.07;;;0.67;;
20456;SDS011;10387;51.102;6.848;2023-04-01T04:16:07;0.70;;;0.70;;
20456;SDS011;10387;51.102;6.848;2023-04-01T04:18:35;1.37;;;0.60;;
20456;SDS011;10387;51.102;6.848;2023-04-01T04:21:02;1.40;;;0.60;;
20456;SDS011;10387;51.102;6.848;2023-04-01T04:23:28;0.93;;;0.50;;
20456;SDS011;10387;51.102;6.848;2023-04-01T04:28:26;0.50;;;0.50;;
20456;SDS011;10387;51.102;6.848;2023-04-01T04:30:54;0.60;;;0.60;;
20456;SDS011;10387;51.102;6.848;2023-04-01T04:33:21;1.37;;;0.60;;
20456;SDS011;10387;51.102;6.848;2023-04-01T04:35:48;0.30;;;0.30;;
20456;SDS011;10387;51.102;6.848;2023-04-01T04:38:14;0.80;;;0.50;;
20456;SDS011;10387;51.102;6.848;2023-04-01T04:40:41;1.13;;;0.50;;
20456;SDS011;10387;51.102;6.848;2023-04-01T04:43:11;0.50;;;0.50;;
20456;SDS011;10387;51.102;6.848;2023-04-01T04:45:38;0.40;;;0.40;;
20456;SDS011;10387;51.102;6.848;2023-04-01T04:48:04;0.60;;;0.60;;
20456;SDS011;10387;51.102;6.848;2023-04-01T04:50:31;0.50;;;0.50;;
20456;SDS011;10387;51.102;6.848;2023-04-01T04:52:57;1.57;;;0.50;;
20456;SDS011;10387;51.102;6.848;2023-04-01T04:55:24;0.87;;;0.40;;
20456;SDS011;10387;51.102;6.848;2023-04-01T04:58:09;0.50;;;0.50;;
20456;SDS011;10387;51.102;6.848;2023-04-01T05:00:40;0.73;;;0.70;;
20456;SDS011;10387;51.102;6.848;2023-04-01T05:03:10;0.83;;;0.50;;
20456;SDS011;10387;51.102;6.848;2023-04-01T05:05:37;1.27;;;0.70;;
20456;SDS011;10387;51.102;6.848;2023-04-01T05:08:04;0.40;;;0.40;;
20456;SDS011;10387;51.102;6.848;2023-04-01T05:10:30;1.17;;;0.60;;
20456;SDS011;10387;51.102;6.848;2023-04-01T05:12:56;0.60;;;0.60;;
20456;SDS011;10387;51.102;6.848;2023-04-01T05:15:23;1.43;;;0.77;;
20456;SDS011;10387;51.102;6.848;2023-04-01T05:17:49;0.70;;;0.70;;
20456;SDS011;10387;51.102;6.848;2023-04-01T05:20:15;0.97;;;0.60;;
20456;SDS011;10387;51.102;6.848;2023-04-01T05:22:42;0.60;;;0.60;;
20456;SDS011;10387;51.102;6.848;2023-04-01T05:25:09;1.07;;;0.80;;
20456;SDS011;10387;51.102;6.848;2023-04-01T05:27:36;1.10;;;0.60;;
20456;SDS011;10387;51.102;6.848;2023-04-01T05:30:02;0.90;;;0.70;;
20456;SDS011;10387;51.102;6.848;2023-04-01T05:32:57;0.73;;;0.73;;
20456;SDS011;10387;51.102;6.848;2023-04-01T05:35:23;0.70;;;0.70;;
20456;SDS011;10387;51.102;6.848;2023-04-01T05:37:52;1.90;;;0.80;;
20456;SDS011;10387;51.102;6.848;2023-04-01T05:40:19;1.20;;;0.77;;
20456;SDS011;10387;51.102;6.848;2023-04-01T05:42:45;1.43;;;0.90;;
20456;SDS011;10387;51.102;6.848;2023-04-01T05:45:13;0.80;;;0.80;;
20456;SDS011;10387;51.102;6.848;2023-04-01T05:48:01;0.83;;;0.70;;
20456;SDS011;10387;51.102;6.848;2023-04-01T05:50:35;1.00;;;1.00;;
20456;SDS011;10387;51.102;6.848;2023-04-01T05:53:01;1.17;;;1.07;;
20456;SDS011;10387;51.102;6.848;2023-04-01T05:55:27;1.43;;;1.20;;
20456;SDS011;10387;51.102;6.848;2023-04-01T05:57:53;1.33;;;1.20;;
20456;SDS011;10387;51.102;6.848;2023-04-01T06:00:20;1.20;;;1.20;;
20456;SDS011;10387;51.102;6.848;2023-04-01T06:02:47;1.23;;;1.13;;
20456;SDS011;10387;51.102;6.848;2023-04-01T06:05:23;1.60;;;1.00;;
20456;SDS011;10387;51.102;6.848;2023-04-01T06:08:00;1.40;;;1.10;;
20456;SDS011;10387;51.102;6.848;2023-04-01T06:10:36;1.30;;;1.13;;
20456;SDS011;10387;51.102;6.848;2023-04-01T06:15:34;1.83;;;1.40;;
20456;SDS011;10387;51.102;6.848;2023-04-01T06:18:20;2.17;;;1.47;;
20456;SDS011;10387;51.102;6.848;2023-04-01T06:28:53;1.63;;;1.30;;
20456;SDS011;10387;51.102;6.848;2023-04-01T06:33:52;1.73;;;1.50;;
20456;SDS011;10387;51.102;6.848;2023-04-01T06:39:21;2.70;;;1.47;;
20456;SDS011;10387;51.102;6.848;2023-04-01T06:42:04;1.90;;;1.40;;
20456;SDS011;10387;51.102;6.848;2023-04-01T06:51:00;1.50;;;1.40;;
20456;SDS011;10387;51.102;6.848;2023-04-01T06:53:54;2.10;;;1.60;;
20456;SDS011;10387;51.102;6.848;2023-04-01T06:56:42;1.40;;;1.30;;
20456;SDS011;10387;51.102;6.848;2023-04-01T06:59:25;2.53;;;1.80;;
20456;SDS011;10387;51.102;6.848;2023-04-01T07:01:53;1.63;;;1.40;;
20456;SDS011;10387;51.102;6.848;2023-04-01T07:04:23;1.43;;;1.33;;
20456;SDS011;10387;51.102;6.848;2023-04-01T07:06:56;1.90;;;1.40;;
20456;SDS011;10387;51.102;6.848;2023-04-01T07:09:24;2.43;;;1.63;;
20456;SDS011;10387;51.102;6.848;2023-04-01T07:12:19;2.17;;;1.60;;
20456;SDS011;10387;51.102;6.848;2023-04-01T07:17:59;1.67;;;1.57;;
20456;SDS011;10387;51.102;6.848;2023-04-01T07:20:30;3.10;;;1.70;;
20456;SDS011;10387;51.102;6.848;2023-04-01T07:22:58;1.70;;;1.60;;
20456;SDS011;10387;51.102;6.848;2023-04-01T07:25:36;1.73;;;1.43;;
20456;SDS011;10387;51.102;6.848;2023-04-01T07:28:26;1.83;;;1.47;;
20456;SDS011;10387;51.102;6.848;2023-04-01T07:33:51;1.70;;;1.60;;
20456;SDS011;10387;51.102;6.848;2023-04-01T07:36:21;2.03;;;1.90;;
20456;SDS011;10387;51.102;6.848;2023-04-01T07:46:40;2.43;;;1.60;;
20456;SDS011;10387;51.102;6.848;2023-04-01T07:55:01;1.83;;;1.73;;
20456;SDS011;10387;51.102;6.848;2023-04-01T07:57:36;2.10;;;1.70;;
20456;SDS011;10387;51.102;6.848;2023-04-01T08:00:08;2.27;;;1.60;;
20456;SDS011;10387;51.102;6.848;2023-04-01T08:11:01;1.90;;;1.70;;
20456;SDS011;10387;51.102;6.848;2023-04-01T08:22:09;1.57;;;1.40;;
20456;SDS011;10387;51.102;6.848;2023-04-01T08:24:44;3.00;;;1.50;;
20456;SDS011;10387;51.102;6.848;2023-04-01T08:27:18;2.00;;;1.50;;
20456;SDS011;10387;51.102;6.848;2023-04-01T08:29:48;1.60;;;1.50;;
20456;SDS011;10387;51.102;6.848;2023-04-01T08:32:16;1.60;;;1.50;;
20456;SDS011;10387;51.102;6.848;2023-04-01T08:34:44;1.60;;;1.50;;
20456;SDS011;10387;51.102;6.848;2023-04-01T08:37:25;1.50;;;1.20;;
20456;SDS011;10387;51.102;6.848;2023-04-01T08:39:57;2.00;;;1.30;;
20456;SDS011;10387;51.102;6.848;2023-04-01T09:06:55;1.40;;;1.30;;
20456;SDS011;10387;51.102;6.848;2023-04-01T09:09:32;1.07;;;1.03;;
20456;SDS011;10387;51.102;6.848;2023-04-01T09:20:32;1.87;;;1.77;;
20456;SDS011;10387;51.102;6.848;2023-04-01T09:28:42;2.10;;;2.00;;
20456;SDS011;10387;51.102;6.848;2023-04-01T09:39:44;2.87;;;2.67;;
20456;SDS011;10387;51.102;6.848;2023-04-01T09:42:26;2.83;;;2.63;;
20456;SDS011;10387;51.102;6.848;2023-04-01T09:45:17;3.23;;;3.03;;
20456;SDS011;10387;51.102;6.848;2023-04-01T09:50:27;3.90;;;3.60;;
20456;SDS011;10387;51.102;6.848;2023-04-01T10:01:34;4.20;;;3.90;;
20456;SDS011;10387;51.102;6.848;2023-04-01T10:17:26;5.37;;;4.23;;
20456;SDS011;10387;51.102;6.848;2023-04-01T10:20:19;3.90;;;3.60;;
20456;SDS011;10387;51.102;6.848;2023-04-01T10:36:52;3.27;;;3.07;;
20456;SDS011;10387;51.102;6.848;2023-04-01T10:48:14;3.23;;;3.03;;
20456;SDS011;10387;51.102;6.848;2023-04-01T10:56:39;3.53;;;3.23;;
20456;SDS011;10387;51.102;6.848;2023-04-01T11:18:36;4.63;;;4.10;;
20456;SDS011;10387;51.102;6.848;2023-04-01T11:21:15;4.50;;;4.20;;
20456;SDS011;10387;51.102;6.848;2023-04-01T11:32:02;4.90;;;4.50;;
20456;SDS011;10387;51.102;6.848;2023-04-01T11:42:38;5.40;;;4.90;;
20456;SDS011;10387;51.102;6.848;2023-04-01T11:47:58;4.93;;;4.53;;
20456;SDS011;10387;51.102;6.848;2023-04-01T11:53:05;5.20;;;4.70;;
20456;SDS011;10387;51.102;6.848;2023-04-01T12:11:05;4.37;;;4.00;;
20456;SDS011;10387;51.102;6.848;2023-04-01T12:13:42;4.27;;;3.97;;
20456;SDS011;10387;51.102;6.848;2023-04-01T12:21:32;4.00;;;3.70;;
20456;SDS011;10387;51.102;6.848;2023-04-01T12:24:10;4.00;;;3.70;;
20456;SDS011;10387;51.102;6.848;2023-04-01T12:42:14;4.27;;;3.87;;
20456;SDS011;10387;51.102;6.848;2023-04-01T12:52:50;5.00;;;4.17;;
20456;SDS011;10387;51.102;6.848;2023-04-01T12:57:51;4.60;;;4.20;;
20456;SDS011;10387;51.102;6.848;2023-04-01T13:05:39;4.80;;;4.30;;
20456;SDS011;10387;51.102;6.848;2023-04-01T13:13:34;4.77;;;4.37;;
20456;SDS011;10387;51.102;6.848;2023-04-01T13:18:54;4.30;;;4.00;;
20456;SDS011;10387;51.102;6.848;2023-04-01T13:21:25;4.63;;;4.23;;
20456;SDS011;10387;51.102;6.848;2023-04-01T13:24:01;4.47;;;4.13;;
20456;SDS011;10387;51.102;6.848;2023-04-01T13:31:31;4.83;;;4.43;;
20456;SDS011;10387;51.102;6.848;2023-04-01T13:39:27;5.00;;;4.50;;
20456;SDS011;10387;51.102;6.848;2023-04-01T13:47:12;5.37;;;4.87;;
20456;SDS011;10387;51.102;6.848;2023-04-01T14:02:30;5.20;;;4.80;;
20456;SDS011;10387;51.102;6.848;2023-04-01T14:05:09;5.03;;;4.63;;
20456;SDS011;10387;51.102;6.848;2023-04-01T14:13:06;5.00;;;4.60;;
20456;SDS011;10387;51.102;6.848;2023-04-01T14:15:42;4.80;;;4.40;;
20456;SDS011;10387;51.102;6.848;2023-04-01T14:18:14;4.73;;;4.33;;
20456;SDS011;10387;51.102;6.848;2023-04-01T14:26:07;4.23;;;3.87;;
20456;SDS011;10387;51.102;6.848;2023-04-01T14:28:51;3.93;;;3.63;;
20456;SDS011;10387;51.102;6.848;2023-04-01T14:42:35;3.90;;;3.60;;
20456;SDS011;10387;51.102;6.848;2023-04-01T14:50:50;3.27;;;2.97;;
20456;SDS011;10387;51.102;6.848;2023-04-01T14:55:55;4.43;;;4.03;;
20456;SDS011;10387;51.102;6.848;2023-04-01T14:58:40;4.93;;;4.30;;
20456;SDS011;10387;51.102;6.848;2023-04-01T15:03:40;4.70;;;4.27;;
20456;SDS011;10387;51.102;6.848;2023-04-01T15:21:44;5.10;;;4.60;;
20456;SDS011;10387;51.102;6.848;2023-04-01T15:24:20;6.43;;;4.67;;
20456;SDS011;10387;51.102;6.848;2023-04-01T15:32:02;5.20;;;4.47;;
20456;SDS011;10387;51.102;6.848;2023-04-01T15:37:19;4.47;;;4.07;;
20456;SDS011;10387;51.102;6.848;2023-04-01T15:40:02;4.73;;;4.33;;
20456;SDS011;10387;51.102;6.848;2023-04-01T15:45:39;4.90;;;4.40;;
20456;SDS011;10387;51.102;6.848;2023-04-01T16:10:58;5.83;;;4.90;;
20456;SDS011;10387;51.102;6.848;2023-04-01T16:18:48;4.13;;;3.73;;
20456;SDS011;10387;51.102;6.848;2023-04-01T16:21:36;4.70;;;4.30;;
20456;SDS011;10387;51.102;6.848;2023-04-01T16:24:11;4.10;;;3.70;;
20456;SDS011;10387;51.102;6.848;2023-04-01T16:29:28;4.40;;;3.67;;
20456;SDS011;10387;51.102;6.848;2023-04-01T16:32:31;3.77;;;3.47;;
20456;SDS011;10387;51.102;6.848;2023-04-01T16:37:39;4.47;;;3.80;;
20456;SDS011;10387;51.102;6.848;2023-04-01T16:40:16;4.47;;;4.07;;
20456;SDS011;10387;51.102;6.848;2023-04-01T16:42:51;4.50;;;4.10;;
20456;SDS011;10387;51.102;6.848;2023-04-01T16:45:21;4.77;;;4.27;;
20456;SDS011;10387;51.102;6.848;2023-04-01T16:47:50;5.50;;;4.60;;
20456;SDS011;10387;51.102;6.848;2023-04-01T16:50:26;4.50;;;4.10;;
20456;SDS011;10387;51.102;6.848;2023-04-01T16:53:01;4.67;;;3.77;;
20456;SDS011;10387;51.102;6.848;2023-04-01T16:55:35;5.50;;;4.93;;
20456;SDS011;10387;51.102;6.848;2023-04-01T16:58:07;4.93;;;4.27;;
20456;SDS011;10387;51.102;6.848;2023-04-01T17:00:40;4.27;;;3.87;;
20456;SDS011;10387;51.102;6.848;2023-04-01T17:05:36;3.70;;;3.40;;
20456;SDS011;10387;51.102;6.848;2023-04-01T17:26:02;4.30;;;3.90;;
20456;SDS011;10387;51.102;6.848;2023-04-01T17:28:44;4.07;;;3.70;;
20456;SDS011;10387;51.102;6.848;2023-04-01T17:34:03;4.83;;;4.17;;
20456;SDS011;10387;51.102;6.848;2023-04-01T17:36:49;5.43;;;4.60;;
20456;SDS011;10387;51.102;6.848;2023-04-01T17:41:50;4.07;;;3.67;;
20456;SDS011;10387;51.102;6.848;2023-04-01T17:52:37;4.47;;;4.07;;
20456;SDS011;10387;51.102;6.848;2023-04-01T18:00:27;4.57;;;4.17;;
20456;SDS011;10387;51.102;6.848;2023-04-01T18:03:07;4.83;;;4.43;;
20456;SDS011;10387;51.102;6.848;2023-04-01T18:08:08;4.07;;;3.77;;
20456;SDS011;10387;51.102;6.848;2023-04-01T18:23:51;3.90;;;3.60;;
20456;SDS011;10387;51.102;6.848;2023-04-01T18:26:33;4.43;;;4.03;;
20456;SDS011;10387;51.102;6.848;2023-04-01T18:31:36;4.07;;;3.77;;
20456;SDS011;10387;51.102;6.848;2023-04-01T18:36:36;4.40;;;4.03;;
20456;SDS011;10387;51.102;6.848;2023-04-01T18:39:17;4.97;;;4.57;;
20456;SDS011;10387;51.102;6.848;2023-04-01T18:42:05;6.53;;;5.17;;
20456;SDS011;10387;51.102;6.848;2023-04-01T18:47:03;6.03;;;4.47;;
20456;SDS011;10387;51.102;6.848;2023-04-01T18:49:48;4.83;;;4.30;;
20456;SDS011;10387;51.102;6.848;2023-04-01T18:52:31;5.20;;;4.60;;
20456;SDS011;10387;51.102;6.848;2023-04-01T18:57:47;5.50;;;5.00;;
20456;SDS011;10387;51.102;6.848;2023-04-01T19:00:22;6.33;;;5.73;;
20456;SDS011;10387;51.102;6.848;2023-04-01T19:02:55;7.37;;;6.03;;
20456;SDS011;10387;51.102;6.848;2023-04-01T19:05:30;6.17;;;5.57;;
20456;SDS011;10387;51.102;6.848;2023-04-01T19:08:13;7.87;;;7.07;;
20456;SDS011;10387;51.102;6.848;2023-04-01T19:15:58;7.33;;;6.57;;
20456;SDS011;10387;51.102;6.848;2023-04-01T19:18:35;8.07;;;7.27;;
20456;SDS011;10387;51.102;6.848;2023-04-01T19:23:57;7.87;;;7.07;;
20456;SDS011;10387;51.102;6.848;2023-04-01T19:29:05;7.97;;;6.97;;
20456;SDS011;10387;51.102;6.848;2023-04-01T19:31:52;8.10;;;7.17;;
20456;SDS011;10387;51.102;6.848;2023-04-01T19:34:22;9.17;;;7.43;;
20456;SDS011;10387;51.102;6.848;2023-04-01T19:36:59;9.77;;;7.57;;
20456;SDS011;10387;51.102;6.848;2023-04-01T19:39:39;8.50;;;7.37;;
20456;SDS011;10387;51.102;6.848;2023-04-01T19:42:16;9.40;;;7.90;;
20456;SDS011;10387;51.102;6.848;2023-04-01T19:52:43;9.10;;;6.90;;
20456;SDS011;10387;51.102;6.848;2023-04-01T20:03:05;7.43;;;6.43;;
20456;SDS011;10387;51.102;6.848;2023-04-01T20:08:27;6.63;;;6.03;;
20456;SDS011;10387;51.102;6.848;2023-04-01T20:13:37;6.43;;;5.77;;
20456;SDS011;10387;51.102;6.848;2023-04-01T20:16:06;5.97;;;5.37;;
20456;SDS011;10387;51.102;6.848;2023-04-01T20:18:34;5.93;;;5.30;;
20456;SDS011;10387;51.102;6.848;2023-04-01T20:21:05;6.13;;;5.53;;
20456;SDS011;10387;51.102;6.848;2023-04-01T20:23:42;5.87;;;5.27;;
20456;SDS011;10387;51.102;6.848;2023-04-01T20:26:13;5.77;;;5.17;;
20456;SDS011;10387;51.102;6.848;2023-04-01T20:31:25;5.93;;;5.33;;
20456;SDS011;10387;51.102;6.848;2023-04-01T20:47:14;5.23;;;4.73;;
20456;SDS011;10387;51.102;6.848;2023-04-01T20:52:21;5.30;;;4.80;;
20456;SDS011;10387;51.102;6.848;2023-04-01T20:57:29;5.67;;;5.07;;
20456;SDS011;10387;51.102;6.848;2023-04-01T21:00:08;5.90;;;5.00;;
20456;SDS011;10387;51.102;6.848;2023-04-01T21:08:02;6.87;;;6.17;;
20456;SDS011;10387;51.102;6.848;2023-04-01T21:10:47;6.47;;;5.87;;
20456;SDS011;10387;51.102;6.848;2023-04-01T21:15:43;7.57;;;6.80;;
20456;SDS011;10387;51.102;6.848;2023-04-01T21:21:08;7.40;;;6.17;;
20456;SDS011;10387;51.102;6.848;2023-04-01T21:37:03;7.60;;;6.50;;
20456;SDS011;10387;51.102;6.848;2023-04-01T21:42:25;7.53;;;6.50;;
20456;SDS011;10387;51.102;6.848;2023-04-01T21:44:54;7.33;;;6.63;;
20456;SDS011;10387;51.102;6.848;2023-04-01T21:55:25;7.17;;;6.47;;
20456;SDS011;10387;51.102;6.848;2023-04-01T22:06:22;8.07;;;6.70;;
20456;SDS011;10387;51.102;6.848;2023-04-01T22:08:53;7.67;;;6.87;;
20456;SDS011;10387;51.102;6.848;2023-04-01T22:11:23;6.43;;;5.83;;
20456;SDS011;10387;51.102;6.848;2023-04-01T22:16:30;6.30;;;5.70;;
20456;SDS011;10387;51.102;6.848;2023-04-01T22:19:11;7.73;;;6.93;;
20456;SDS011;10387;51.102;6.848;2023-04-01T22:21:47;7.07;;;6.33;;
20456;SDS011;10387;51.102;6.848;2023-04-01T22:24:32;6.93;;;6.10;;
20456;SDS011;10387;51.102;6.848;2023-04-01T22:27:13;6.80;;;5.90;;
20456;SDS011;10387;51.102;6.848;2023-04-01T22:32:16;7.50;;;6.73;;
20456;SDS011;10387;51.102;6.848;2023-04-01T22:37:51;8.57;;;7.40;;
20456;SDS011;10387;51.102;6.848;2023-04-01T22:43:06;9.83;;;7.83;;
20456;SDS011;10387;51.102;6.848;2023-04-01T22:45:43;9.07;;;7.83;;
20456;SDS011;10387;51.102;6.848;2023-04-01T22:51:03;10.87;;;8.90;;
20456;SDS011;10387;51.102;6.848;2023-04-01T22:53:49;9.17;;;8.03;;
20456;SDS011;10387;51.102;6.848;2023-04-01T22:56:18;9.17;;;8.17;;
20456;SDS011;10387;51.102;6.848;2023-04-01T22:59:08;8.03;;;7.23;;
20456;SDS011;10387;51.102;6.848;2023-04-01T23:01:33;10.20;;;8.87;;
20456;SDS011;10387;51.102;6.848;2023-04-01T23:04:03;11.07;;;8.67;;
20456;SDS011;10387;51.102;6.848;2023-04-01T23:06:33;9.83;;;8.57;;
20456;SDS011;10387;51.102;6.848;2023-04-01T23:09:02;9.60;;;8.33;;
20456;SDS011;10387;51.102;6.848;2023-04-01T23:11:40;10.30;;;9.00;;
20456;SDS011;10387;51.102;6.848;2023-04-01T23:16:46;9.33;;;7.80;;
20456;SDS011;10387;51.102;6.848;2023-04-01T23:19:17;9.00;;;7.80;;
20456;SDS011;10387;51.102;6.848;2023-04-01T23:22:05;7.77;;;7.03;;
20456;SDS011;10387;51.102;6.848;2023-04-01T23:24:54;7.70;;;6.83;;
20456;SDS011;10387;51.102;6.848;2023-04-01T23:29:51;7.93;;;7.13;;
20456;SDS011;10387;51.102;6.848;2023-04-01T23:32:18;8.60;;;7.37;;
20456;SDS011;10387;51.102;6.848;2023-04-01T23:34:48;8.97;;;7.60;;
20456;SDS011;10387;51.102;6.848;2023-04-01T23:37:15;7.00;;;6.20;;
20456;SDS011;10387;51.102;6.848;2023-04-01T23:39:43;7.20;;;6.50;;
20456;SDS011;10387;51.102;6.848;2023-04-01T23:42:15;7.30;;;6.53;;
20456;SDS011;10387;51.102;6.848;2023-04-01T23:44:45;5.57;;;5.00;;
20456;SDS011;10387;51.102;6.848;2023-04-01T23:47:22;4.47;;;4.10;;
20456;SDS011;10387;51.102;6.848;2023-04-01T23:49:58;4.43;;;4.03;;
20456;SDS011;10387;51.102;6.848;2023-04-01T23:52:27;7.97;;;6.67;;
20456;SDS011;10387;51.102;6.848;2023-04-01T23:55:08;9.83;;;7.20;;
20456;SDS011;10387;51.102;6.848;2023-04-01T23:57:35;8.17;;;7.00;;
